Risoy — LG4516 — position and weather

sailwx.info

Track history (hours):
 
Tides and Currents Weather Stations Pressure Air Temp Water Temp Dewpoint Dewpoint Depression Visibility Wind Speed Wind Dir Waves Ship Positions

Risoy

Last reported at 2017-Oct-20 10:30 UTC. Time now 2017-Oct-20 10:54 UTC.
Position N 58°52' E 009°25'.

Length 14 m.

Type: Fishing. MMSI: 257308740.

Date/timePositionNaut miles runAvg speedWind from/ knotsBaromVisibWave heightAir tempDewpointWater temp
2017-Oct-20 10:30N 58°52' E 009°25'0 0.0
2017-Oct-20 10:00N 58°52' E 009°25'0 0.0
2017-Oct-20 09:24N 58°52' E 009°25'0 0.0
2017-Oct-20 09:00N 58°52' E 009°25'0 0.0
2017-Oct-20 08:24N 58°52' E 009°25'0 0.0
2017-Oct-20 07:54N 58°52' E 009°25'0 0.0
2017-Oct-20 07:24N 58°52' E 009°25'0 0.0
2017-Oct-20 07:00N 58°52' E 009°25'0 0.0
2017-Oct-20 06:30N 58°52' E 009°25'0 0.0
2017-Oct-20 06:00N 58°52' E 009°25'0 0.0
2017-Oct-20 05:30N 58°52' E 009°25'0 0.0
2017-Oct-20 05:00N 58°52' E 009°25'0 0.0
2017-Oct-20 04:30N 58°52' E 009°25'0 0.0
2017-Oct-20 04:00N 58°52' E 009°25'0 0.0
2017-Oct-20 03:30N 58°52' E 009°25'0 0.0
2017-Oct-20 03:00N 58°52' E 009°25'0 0.0
2017-Oct-20 02:30N 58°52' E 009°25'0 0.0
2017-Oct-20 02:00N 58°52' E 009°25'0 0.0
2017-Oct-20 01:30N 58°52' E 009°25'0 0.0
2017-Oct-20 01:00N 58°52' E 009°25'0 0.0
2017-Oct-20 00:30N 58°52' E 009°25'0 0.0
2017-Oct-20 00:00N 58°52' E 009°25'0 0.0
2017-Oct-19 23:30N 58°52' E 009°25'0 0.0
2017-Oct-19 22:54N 58°52' E 009°25'0 0.0
2017-Oct-19 22:30N 58°52' E 009°25'0 0.0
2017-Oct-19 22:00N 58°52' E 009°25'0 0.0
2017-Oct-19 21:30N 58°52' E 009°25'0 0.0
2017-Oct-19 21:00N 58°52' E 009°25'0 0.0
2017-Oct-19 20:18N 58°52' E 009°25'0 0.0
2017-Oct-19 20:00N 58°52' E 009°25'0 0.0
2017-Oct-19 19:30N 58°52' E 009°25'0 0.0
2017-Oct-19 19:00N 58°52' E 009°25'0 0.0
2017-Oct-19 18:30N 58°52' E 009°25'0 0.0
2017-Oct-19 18:00N 58°52' E 009°25'0 0.0
2017-Oct-19 17:24N 58°52' E 009°25'0 0.0
2017-Oct-19 16:54N 58°52' E 009°25'0 0.0
2017-Oct-19 16:24N 58°52' E 009°25'0 0.0
2017-Oct-19 16:00N 58°52' E 009°25'0 0.0
2017-Oct-19 15:30N 58°52' E 009°25'0 0.0
2017-Oct-19 15:00N 58°52' E 009°25'0 0.0
2017-Oct-19 14:30N 58°52' E 009°25'0 0.0
2017-Oct-19 13:54N 58°52' E 009°25'0 0.0
2017-Oct-19 13:30N 58°52' E 009°25'0 0.0
2017-Oct-19 13:00N 58°52' E 009°25'0 0.0
2017-Oct-19 12:24N 58°52' E 009°25'0 0.1
2017-Oct-19 12:00N 58°52' E 009°25'1 2.5
2017-Oct-19 11:27N 58°51' E 009°27'0 0.2
2017-Oct-19 10:56N 58°51' E 009°27'1 0.2
2017-Oct-19 01:56N 58°52' E 009°25'0 0.0
2017-Oct-19 01:26N 58°52' E 009°25'0 0.0
2017-Oct-19 00:56N 58°52' E 009°25'0 0.0
2017-Oct-19 00:14N 58°52' E 009°25'0 0.0
2017-Oct-18 23:56N 58°52' E 009°25'0 0.0
2017-Oct-18 23:26N 58°52' E 009°25'0 0.0
2017-Oct-18 22:50N 58°52' E 009°25'0 0.0
2017-Oct-18 22:14N 58°52' E 009°25'0 0.0
2017-Oct-18 21:56N 58°52' E 009°25'0 0.0
2017-Oct-18 21:26N 58°52' E 009°25'0 0.0
2017-Oct-18 20:56N 58°52' E 009°25'0 0.0
2017-Oct-18 20:26N 58°52' E 009°25'0 0.0
2017-Oct-18 19:56N 58°52' E 009°25'0 0.0
2017-Oct-18 19:20N 58°52' E 009°25'0 0.0
2017-Oct-18 18:56N 58°52' E 009°25'0 0.0
2017-Oct-18 18:29N 58°52' E 009°25'0 0.0
2017-Oct-18 17:56N 58°52' E 009°25'0 0.0
2017-Oct-18 17:26N 58°52' E 009°25'0 0.0
2017-Oct-18 16:56N 58°52' E 009°25'0 0.0
2017-Oct-18 16:26N 58°52' E 009°25'0 0.0
2017-Oct-18 15:56N 58°52' E 009°25'0 0.3
2017-Oct-18 15:30N 58°52' E 009°25'4 7.5
2017-Oct-18 14:59N 58°49' E 009°30'8 8.3
2017-Oct-18 14:00N 58°50' E 009°46'2 4.1
2017-Oct-18 13:30N 58°51' E 009°50'0 0.5
2017-Oct-18 12:59N 58°51' E 009°50'9 1.2
2017-Oct-18 05:03N 58°48' E 009°33'0 7.2
2017-Oct-18 04:59N 58°48' E 009°33'4 7.7
2017-Oct-18 04:30N 58°51' E 009°27'2 3.4
2017-Oct-18 03:56N 58°52' E 009°25'0 0.0
2017-Oct-18 03:29N 58°52' E 009°25'0 0.0
2017-Oct-18 02:59N 58°52' E 009°25'0 0.0
2017-Oct-18 02:29N 58°52' E 009°25'0 0.0
2017-Oct-18 01:56N 58°52' E 009°25'0 0.0
2017-Oct-18 01:29N 58°52' E 009°25'0 0.0
2017-Oct-18 00:59N 58°52' E 009°25'0 0.0
2017-Oct-18 00:26N 58°52' E 009°25'0 0.0
2017-Oct-17 23:56N 58°52' E 009°25'0 0.0
2017-Oct-17 23:29N 58°52' E 009°25'0 0.0
2017-Oct-17 22:56N 58°52' E 009°25'0 0.0
2017-Oct-17 22:26N 58°52' E 009°25'0 0.0
2017-Oct-17 21:56N 58°52' E 009°25'0 0.0
2017-Oct-17 21:26N 58°52' E 009°25'0 0.0
2017-Oct-17 20:38N 58°52' E 009°25'0 0.0
2017-Oct-17 20:26N 58°52' E 009°25'0 0.0
2017-Oct-17 19:56N 58°52' E 009°25'0 0.0
2017-Oct-17 19:26N 58°52' E 009°25'0 0.0
2017-Oct-17 18:56N 58°52' E 009°25'0 0.0
2017-Oct-17 18:26N 58°52' E 009°25'0 0.0
2017-Oct-17 17:50N 58°52' E 009°25'0 0.0
2017-Oct-17 17:26N 58°52' E 009°25'0 0.0
2017-Oct-17 16:56N 58°52' E 009°25'0 0.0
2017-Oct-17 16:26N 58°52' E 009°25'0 0.0
2017-Oct-17 15:56N 58°52' E 009°25'0 0.0
2017-Oct-17 15:26N 58°52' E 009°25'0 0.0
2017-Oct-17 14:44N 58°52' E 009°25'0 0.0
2017-Oct-17 14:26N 58°52' E 009°25'0 0.0
2017-Oct-17 13:56N 58°52' E 009°25'0 0.0
2017-Oct-17 13:20N 58°52' E 009°25'0 0.0
2017-Oct-17 12:56N 58°52' E 009°25'0 0.0
2017-Oct-17 12:26N 58°52' E 009°25'0 0.0
2017-Oct-17 11:56N 58°52' E 009°25'0 0.0
2017-Oct-17 11:26N 58°52' E 009°25'0 0.0
2017-Oct-17 10:56N 58°52' E 009°25'0 0.0
2017-Oct-17 10:20N 58°52' E 009°25'0 0.0
2017-Oct-17 09:56N 58°52' E 009°25'0 0.0
2017-Oct-17 09:26N 58°52' E 009°25'0 0.0
2017-Oct-17 08:56N 58°52' E 009°25'0 0.0
2017-Oct-17 08:26N 58°52' E 009°25'0 0.0
2017-Oct-17 07:56N 58°52' E 009°25'0 0.0
2017-Oct-17 07:23N 58°52' E 009°25'0 0.0
2017-Oct-17 06:56N 58°52' E 009°25'0 0.0
2017-Oct-17 06:26N 58°52' E 009°25'0 0.0
2017-Oct-17 05:50N 58°52' E 009°25'0 0.0
2017-Oct-17 05:26N 58°52' E 009°25'0 0.0
2017-Oct-17 04:44N 58°52' E 009°25'0 0.0
2017-Oct-17 04:26N 58°52' E 009°25'0 0.0
2017-Oct-17 03:56N 58°52' E 009°25'0 0.0
2017-Oct-17 03:26N 58°52' E 009°25'0 0.0
2017-Oct-17 02:56N 58°52' E 009°25'0 0.0
2017-Oct-17 02:26N 58°52' E 009°25'0 0.0
2017-Oct-17 01:50N 58°52' E 009°25'0 0.0
2017-Oct-17 01:26N 58°52' E 009°25'0 0.0
2017-Oct-17 00:59N 58°52' E 009°25'0 0.0
2017-Oct-17 00:26N 58°52' E 009°25'0 0.0
2017-Oct-16 23:59N 58°52' E 009°25'0 0.0
2017-Oct-16 23:26N 58°52' E 009°25'0 0.0
2017-Oct-16 22:56N 58°52' E 009°25'0 0.0
2017-Oct-16 22:26N 58°52' E 009°25'0 0.0
2017-Oct-16 21:56N 58°52' E 009°25'0 0.0
2017-Oct-16 21:26N 58°52' E 009°25'0 0.0
2017-Oct-16 20:56N 58°52' E 009°25'0 0.0
2017-Oct-16 20:26N 58°52' E 009°25'0 0.0
2017-Oct-16 19:53N 58°52' E 009°25'0 0.0
2017-Oct-16 19:26N 58°52' E 009°25'0 0.0
2017-Oct-16 18:50N 58°52' E 009°25'0 0.0
2017-Oct-16 18:14N 58°52' E 009°25'0 0.0
2017-Oct-16 17:53N 58°52' E 009°25'0 0.0
2017-Oct-16 17:26N 58°52' E 009°25'0 0.0
2017-Oct-16 16:56N 58°52' E 009°25'0 0.0
2017-Oct-16 16:26N 58°52' E 009°25'0 0.0
2017-Oct-16 15:56N 58°52' E 009°25'0 0.0
2017-Oct-16 15:26N 58°52' E 009°25'0 0.0
2017-Oct-16 14:56N 58°52' E 009°25'0 0.0
2017-Oct-16 14:29N 58°52' E 009°25'3 3.4
2017-Oct-16 13:30N 58°49' E 009°29'4 7.2
2017-Oct-16 13:00N 58°46' E 009°32'7 1.0
2017-Oct-16 06:38N 58°52' E 009°25'0 1.5
2017-Oct-16 06:23N 58°52' E 009°25'0 0.0
2017-Oct-16 05:53N 58°52' E 009°25'0 0.0
2017-Oct-16 05:29N 58°52' E 009°25'0 0.0
2017-Oct-16 04:41N 58°52' E 009°25'0 0.0
2017-Oct-16 04:29N 58°52' E 009°25'0 0.0
2017-Oct-16 03:53N 58°52' E 009°25'0 0.0
2017-Oct-16 03:23N 58°52' E 009°25'0 0.0
2017-Oct-16 02:59N 58°52' E 009°25'0 0.0
2017-Oct-16 02:23N 58°52' E 009°25'0 0.0
2017-Oct-16 01:59N 58°52' E 009°25'0 0.0
2017-Oct-16 01:29N 58°52' E 009°25'0 0.0
2017-Oct-16 00:59N 58°52' E 009°25'0 0.0
2017-Oct-16 00:29N 58°52' E 009°25'0 0.0
2017-Oct-15 23:53N 58°52' E 009°25'0 0.0
2017-Oct-15 23:29N 58°52' E 009°25'0 0.0
2017-Oct-15 22:59N 58°52' E 009°25'0 0.0
2017-Oct-15 22:29N 58°52' E 009°25'0 0.0
2017-Oct-15 21:59N 58°52' E 009°25'0 0.0
2017-Oct-15 21:17N 58°52' E 009°25'0 0.0
2017-Oct-15 20:59N 58°52' E 009°25'0 0.0
2017-Oct-15 20:29N 58°52' E 009°25'0 0.0
2017-Oct-15 19:59N 58°52' E 009°25'0 0.0
2017-Oct-15 19:29N 58°52' E 009°25'0 0.0
2017-Oct-15 18:59N 58°52' E 009°25'0 0.0
2017-Oct-15 18:23N 58°52' E 009°25'0 0.0
2017-Oct-15 17:59N 58°52' E 009°25'0 0.0
2017-Oct-15 17:23N 58°52' E 009°25'0 0.0
2017-Oct-15 16:59N 58°52' E 009°25'0 0.0
2017-Oct-15 16:29N 58°52' E 009°25'0 0.0
2017-Oct-15 15:53N 58°52' E 009°25'0 0.0
2017-Oct-15 15:17N 58°52' E 009°25'0 0.0
2017-Oct-15 14:59N 58°52' E 009°25'0 0.0
2017-Oct-15 13:59N 58°52' E 009°25'0 0.0
2017-Oct-15 13:29N 58°52' E 009°25'0 0.0
2017-Oct-15 12:59N 58°52' E 009°25'0 0.0
2017-Oct-15 12:29N 58°52' E 009°25'0 0.0
2017-Oct-15 11:53N 58°52' E 009°25'0 0.0
2017-Oct-15 11:23N 58°52' E 009°25'0 0.0
2017-Oct-15 10:59N 58°52' E 009°25'0 0.0
2017-Oct-15 10:29N 58°52' E 009°25'0 0.0
2017-Oct-15 09:59N 58°52' E 009°25'0 0.0
2017-Oct-15 09:29N 58°52' E 009°25'0 0.0
2017-Oct-15 08:47N 58°52' E 009°25'0 0.0
2017-Oct-15 08:29N 58°52' E 009°25'0 0.0
2017-Oct-15 07:59N 58°52' E 009°25'0 0.0
2017-Oct-15 07:29N 58°52' E 009°25'0 0.0
2017-Oct-15 06:59N 58°52' E 009°25'0 0.0
2017-Oct-15 06:17N 58°52' E 009°25'0 0.0
2017-Oct-15 05:53N 58°52' E 009°25'0 0.0
2017-Oct-15 05:17N 58°52' E 009°25'0 0.0
2017-Oct-15 04:59N 58°52' E 009°25'0 0.0
2017-Oct-15 04:23N 58°52' E 009°25'0 0.0
2017-Oct-15 03:47N 58°52' E 009°25'0 0.0
2017-Oct-15 03:17N 58°52' E 009°25'0 0.0
2017-Oct-15 02:59N 58°52' E 009°25'0 0.0
2017-Oct-15 02:29N 58°52' E 009°25'0 0.0
2017-Oct-15 01:59N 58°52' E 009°25'0 0.0
2017-Oct-15 01:29N 58°52' E 009°25'0 0.0
2017-Oct-15 00:53N 58°52' E 009°25'0 0.0
2017-Oct-15 00:23N 58°52' E 009°25'0 0.0
2017-Oct-14 23:59N 58°52' E 009°25'0 0.0
2017-Oct-14 23:29N 58°52' E 009°25'0 0.0
2017-Oct-14 22:53N 58°52' E 009°25'0 0.0
2017-Oct-14 22:29N 58°52' E 009°25'0 0.0
2017-Oct-14 21:53N 58°52' E 009°25'0 0.0
2017-Oct-14 21:23N 58°52' E 009°25'0 0.0
2017-Oct-14 20:53N 58°52' E 009°25'0 0.0
2017-Oct-14 20:29N 58°52' E 009°25'0 0.0
2017-Oct-14 19:53N 58°52' E 009°25'0 0.0
2017-Oct-14 18:53N 58°52' E 009°25'0 0.0
2017-Oct-14 18:23N 58°52' E 009°25'0 0.0
2017-Oct-14 17:59N 58°52' E 009°25'0 0.0
2017-Oct-14 17:29N 58°52' E 009°25'0 0.0
2017-Oct-14 16:47N 58°52' E 009°25'0 0.0
2017-Oct-14 16:23N 58°52' E 009°25'0 0.0
2017-Oct-14 15:59N 58°52' E 009°25'0 0.0
2017-Oct-14 15:23N 58°52' E 009°25'0 0.0
2017-Oct-14 14:59N 58°52' E 009°25'0 0.0
2017-Oct-14 14:29N 58°52' E 009°25'0 0.0
2017-Oct-14 13:59N 58°52' E 009°25'0 0.0
2017-Oct-14 13:29N 58°52' E 009°25'0 0.0
2017-Oct-14 12:41N 58°52' E 009°25'0 0.0
2017-Oct-14 12:23N 58°52' E 009°25'0 0.0
2017-Oct-14 11:59N 58°52' E 009°25'0 0.0
2017-Oct-14 11:11N 58°52' E 009°25'0 0.0
2017-Oct-14 10:59N 58°52' E 009°25'0 0.0
2017-Oct-14 10:29N 58°52' E 009°25'0 0.0
2017-Oct-14 09:59N 58°52' E 009°25'0 0.0
2017-Oct-14 09:29N 58°52' E 009°25'0 0.0
2017-Oct-14 08:59N 58°52' E 009°25'0 0.0
2017-Oct-14 08:29N 58°52' E 009°25'0 0.0
2017-Oct-14 07:59N 58°52' E 009°25'0 0.0
2017-Oct-14 07:29N 58°52' E 009°25'0 0.0
2017-Oct-14 06:53N 58°52' E 009°25'0 0.0
2017-Oct-14 06:29N 58°52' E 009°25'0 0.0
2017-Oct-14 05:53N 58°52' E 009°25'0 0.0
2017-Oct-14 05:29N 58°52' E 009°25'0 0.0
2017-Oct-14 04:59N 58°52' E 009°25'0 0.0
2017-Oct-14 04:29N 58°52' E 009°25'0 0.0
2017-Oct-14 03:56N 58°52' E 009°25'0 0.0
2017-Oct-14 03:23N 58°52' E 009°25'0 0.0
2017-Oct-14 02:59N 58°52' E 009°25'0 0.0
2017-Oct-14 02:29N 58°52' E 009°25'0 0.0
2017-Oct-14 01:59N 58°52' E 009°25'0 0.0
2017-Oct-14 01:23N 58°52' E 009°25'0 0.0
2017-Oct-14 00:59N 58°52' E 009°25'0 0.0
2017-Oct-14 00:29N 58°52' E 009°25'0 0.0
2017-Oct-13 23:59N 58°52' E 009°25'0 0.0
2017-Oct-13 23:29N 58°52' E 009°25'0 0.0
2017-Oct-13 22:53N 58°52' E 009°25'0 0.0
2017-Oct-13 22:17N 58°52' E 009°25'0 0.0
2017-Oct-13 21:59N 58°52' E 009°25'0 0.0
2017-Oct-13 21:23N 58°52' E 009°25'0 0.0
2017-Oct-13 20:59N 58°52' E 009°25'0 0.0
2017-Oct-13 20:29N 58°52' E 009°25'0 0.0
2017-Oct-13 19:59N 58°52' E 009°25'0 0.0
2017-Oct-13 19:29N 58°52' E 009°25'0 0.0
2017-Oct-13 18:59N 58°52' E 009°25'0 0.0
2017-Oct-13 18:29N 58°52' E 009°25'0 0.0
2017-Oct-13 17:59N 58°52' E 009°25'0 0.0
2017-Oct-13 17:29N 58°52' E 009°25'0 0.0
2017-Oct-13 16:59N 58°52' E 009°25'0 0.0
2017-Oct-13 16:23N 58°52' E 009°25'0 0.0
2017-Oct-13 15:59N 58°52' E 009°25'0 0.0
2017-Oct-13 15:29N 58°52' E 009°25'0 0.0
2017-Oct-13 14:53N 58°52' E 009°25'0 0.0
2017-Oct-13 14:29N 58°52' E 009°25'0 0.0
2017-Oct-13 13:59N 58°52' E 009°25'0 0.0
2017-Oct-13 13:29N 58°52' E 009°25'0 0.0
2017-Oct-13 12:47N 58°52' E 009°25'0 0.0
2017-Oct-13 12:23N 58°52' E 009°25'0 0.0
2017-Oct-13 11:53N 58°52' E 009°25'0 0.0
2017-Oct-13 11:29N 58°52' E 009°25'0 0.0
2017-Oct-13 10:59N 58°52' E 009°25'0 0.0
2017-Oct-13 10:29N 58°52' E 009°25'0 0.0
2017-Oct-13 09:59N 58°52' E 009°25'0 0.0
2017-Oct-13 09:29N 58°52' E 009°25'0 0.0
2017-Oct-13 08:59N 58°52' E 009°25'0 0.0
2017-Oct-13 08:29N 58°52' E 009°25'0 0.0
2017-Oct-12 16:24N 58°52' E 009°25'0 0.0
2017-Oct-12 15:59N 58°52' E 009°25'0 0.0
2017-Oct-12 15:17N 58°52' E 009°25'0 0.0
2017-Oct-12 14:53N 58°52' E 009°25'0 0.0
2017-Oct-12 14:23N 58°52' E 009°25'0 0.0
2017-Oct-12 13:59N 58°52' E 009°25'0 0.0
2017-Oct-12 13:29N 58°52' E 009°25'0 0.0
2017-Oct-12 12:59N 58°52' E 009°25'0 0.0
2017-Oct-12 12:29N 58°52' E 009°25'0 0.0
2017-Oct-12 11:53N 58°52' E 009°25'0 0.0
2017-Oct-12 11:29N 58°52' E 009°25'0 0.0
2017-Oct-12 10:59N 58°52' E 009°25'0 0.0
2017-Oct-12 10:17N 58°52' E 009°25'0 0.0
2017-Oct-12 09:59N 58°52' E 009°25'0 0.0
2017-Oct-12 09:29N 58°52' E 009°25'0 0.0
2017-Oct-12 08:59N 58°52' E 009°25'0 0.0
2017-Oct-12 08:29N 58°52' E 009°25'0 0.0
2017-Oct-12 07:59N 58°52' E 009°25'0 0.0
2017-Oct-12 07:29N 58°52' E 009°25'0 0.0
2017-Oct-12 06:59N 58°52' E 009°25'0 0.0
2017-Oct-12 06:29N 58°52' E 009°25'0 0.0
2017-Oct-12 05:53N 58°52' E 009°25'0 0.0
2017-Oct-12 05:29N 58°52' E 009°25'0 0.0
2017-Oct-12 04:59N 58°52' E 009°25'0 0.0
2017-Oct-12 04:29N 58°52' E 009°25'0 0.0
2017-Oct-12 03:59N 58°52' E 009°25'0 0.0
2017-Oct-12 03:29N 58°52' E 009°25'0 0.0
2017-Oct-12 02:59N 58°52' E 009°25'0 0.0
2017-Oct-12 02:29N 58°52' E 009°25'0 0.0
2017-Oct-12 01:59N 58°52' E 009°25'0 0.0
2017-Oct-12 01:29N 58°52' E 009°25'0 0.0
2017-Oct-12 00:53N 58°52' E 009°25'0 0.0
2017-Oct-12 00:29N 58°52' E 009°25'0 0.0
2017-Oct-11 23:59N 58°52' E 009°25'0 0.0
2017-Oct-11 23:29N 58°52' E 009°25'0 0.0
2017-Oct-11 22:59N 58°52' E 009°25'0 0.0
2017-Oct-11 22:23N 58°52' E 009°25'0 0.0
2017-Oct-11 21:47N 58°52' E 009°25'0 0.0
2017-Oct-11 21:29N 58°52' E 009°25'0 0.0
2017-Oct-11 20:59N 58°52' E 009°25'0 0.0
2017-Oct-11 20:29N 58°52' E 009°25'0 0.0
2017-Oct-11 19:53N 58°52' E 009°25'0 0.0
2017-Oct-11 19:29N 58°52' E 009°25'0 0.0
2017-Oct-11 18:59N 58°52' E 009°25'0 0.0
2017-Oct-11 18:29N 58°52' E 009°25'0 0.0
2017-Oct-11 17:59N 58°52' E 009°25'0 0.0
2017-Oct-11 17:23N 58°52' E 009°25'0 0.0
2017-Oct-11 16:59N 58°52' E 009°25'0 0.0
2017-Oct-10 23:52N 58°52' E 009°25'0 0.0
2017-Oct-10 23:28N 58°52' E 009°25'0 0.0
2017-Oct-10 22:58N 58°52' E 009°25'0 0.0
2017-Oct-10 22:28N 58°52' E 009°25'0 0.0
2017-Oct-10 21:52N 58°52' E 009°25'0 0.0
2017-Oct-10 21:28N 58°52' E 009°25'0 0.0
2017-Oct-10 20:46N 58°52' E 009°25'0 0.0
2017-Oct-10 20:28N 58°52' E 009°25'0 0.0
2017-Oct-10 19:58N 58°52' E 009°25'0 0.0
2017-Oct-10 19:28N 58°52' E 009°25'0 0.0
2017-Oct-10 18:58N 58°52' E 009°25'0 0.0
2017-Oct-10 18:28N 58°52' E 009°25'0 0.0
2017-Oct-10 17:58N 58°52' E 009°25'0 0.0
2017-Oct-10 17:28N 58°52' E 009°25'0 0.0
2017-Oct-10 16:52N 58°52' E 009°25'0 0.0
2017-Oct-10 16:28N 58°52' E 009°25'0 0.0
2017-Oct-10 15:58N 58°52' E 009°25'0 0.0
2017-Oct-10 15:28N 58°52' E 009°25'0 0.0
2017-Oct-10 14:58N 58°52' E 009°25'0 0.0
2017-Oct-10 13:59N 58°52' E 009°25'3 6.9
2017-Oct-10 13:30N 58°50' E 009°29'4 7.0
2017-Oct-10 13:00N 58°48' E 009°35'4 7.2
2017-Oct-10 12:29N 58°47' E 009°42'3 6.1
2017-Oct-10 11:59N 58°46' E 009°48'1 1.1
2017-Oct-10 11:29N 58°46' E 009°49'  
Track history (hours):
 
Tides and Currents Weather Stations Pressure Air Temp Water Temp Dewpoint Dewpoint Depression Visibility Wind Speed Wind Dir Waves Ship Positions

Risoy

Last reported at 2017-Oct-20 10:30 UTC. Time now 2017-Oct-20 10:54 UTC.
Position N 58°52' E 009°25'.

Length 14 m.

Type: Fishing. MMSI: 257308740.

Date/timePositionNaut miles runAvg speedWind from/ knotsBaromVisibWave heightAir tempDewpointWater temp
2017-Oct-20 10:30N 58°52' E 009°25'0 0.0
2017-Oct-20 10:00N 58°52' E 009°25'0 0.0
2017-Oct-20 09:24N 58°52' E 009°25'0 0.0
2017-Oct-20 09:00N 58°52' E 009°25'0 0.0
2017-Oct-20 08:24N 58°52' E 009°25'0 0.0
2017-Oct-20 07:54N 58°52' E 009°25'0 0.0
2017-Oct-20 07:24N 58°52' E 009°25'0 0.0
2017-Oct-20 07:00N 58°52' E 009°25'0 0.0
2017-Oct-20 06:30N 58°52' E 009°25'0 0.0
2017-Oct-20 06:00N 58°52' E 009°25'0 0.0
2017-Oct-20 05:30N 58°52' E 009°25'0 0.0
2017-Oct-20 05:00N 58°52' E 009°25'0 0.0
2017-Oct-20 04:30N 58°52' E 009°25'0 0.0
2017-Oct-20 04:00N 58°52' E 009°25'0 0.0
2017-Oct-20 03:30N 58°52' E 009°25'0 0.0
2017-Oct-20 03:00N 58°52' E 009°25'0 0.0
2017-Oct-20 02:30N 58°52' E 009°25'0 0.0
2017-Oct-20 02:00N 58°52' E 009°25'0 0.0
2017-Oct-20 01:30N 58°52' E 009°25'0 0.0
2017-Oct-20 01:00N 58°52' E 009°25'0 0.0
2017-Oct-20 00:30N 58°52' E 009°25'0 0.0
2017-Oct-20 00:00N 58°52' E 009°25'0 0.0
2017-Oct-19 23:30N 58°52' E 009°25'0 0.0
2017-Oct-19 22:54N 58°52' E 009°25'0 0.0
2017-Oct-19 22:30N 58°52' E 009°25'0 0.0
2017-Oct-19 22:00N 58°52' E 009°25'0 0.0
2017-Oct-19 21:30N 58°52' E 009°25'0 0.0
2017-Oct-19 21:00N 58°52' E 009°25'0 0.0
2017-Oct-19 20:18N 58°52' E 009°25'0 0.0
2017-Oct-19 20:00N 58°52' E 009°25'0 0.0
2017-Oct-19 19:30N 58°52' E 009°25'0 0.0
2017-Oct-19 19:00N 58°52' E 009°25'0 0.0
2017-Oct-19 18:30N 58°52' E 009°25'0 0.0
2017-Oct-19 18:00N 58°52' E 009°25'0 0.0
2017-Oct-19 17:24N 58°52' E 009°25'0 0.0
2017-Oct-19 16:54N 58°52' E 009°25'0 0.0
2017-Oct-19 16:24N 58°52' E 009°25'0 0.0
2017-Oct-19 16:00N 58°52' E 009°25'0 0.0
2017-Oct-19 15:30N 58°52' E 009°25'0 0.0
2017-Oct-19 15:00N 58°52' E 009°25'0 0.0
2017-Oct-19 14:30N 58°52' E 009°25'0 0.0
2017-Oct-19 13:54N 58°52' E 009°25'0 0.0
2017-Oct-19 13:30N 58°52' E 009°25'0 0.0
2017-Oct-19 13:00N 58°52' E 009°25'0 0.0
2017-Oct-19 12:24N 58°52' E 009°25'0 0.1
2017-Oct-19 12:00N 58°52' E 009°25'1 2.5
2017-Oct-19 11:27N 58°51' E 009°27'0 0.2
2017-Oct-19 10:56N 58°51' E 009°27'1 0.2
2017-Oct-19 01:56N 58°52' E 009°25'0 0.0
2017-Oct-19 01:26N 58°52' E 009°25'0 0.0
2017-Oct-19 00:56N 58°52' E 009°25'0 0.0
2017-Oct-19 00:14N 58°52' E 009°25'0 0.0
2017-Oct-18 23:56N 58°52' E 009°25'0 0.0
2017-Oct-18 23:26N 58°52' E 009°25'0 0.0
2017-Oct-18 22:50N 58°52' E 009°25'0 0.0
2017-Oct-18 22:14N 58°52' E 009°25'0 0.0
2017-Oct-18 21:56N 58°52' E 009°25'0 0.0
2017-Oct-18 21:26N 58°52' E 009°25'0 0.0
2017-Oct-18 20:56N 58°52' E 009°25'0 0.0
2017-Oct-18 20:26N 58°52' E 009°25'0 0.0
2017-Oct-18 19:56N 58°52' E 009°25'0 0.0
2017-Oct-18 19:20N 58°52' E 009°25'0 0.0
2017-Oct-18 18:56N 58°52' E 009°25'0 0.0
2017-Oct-18 18:29N 58°52' E 009°25'0 0.0
2017-Oct-18 17:56N 58°52' E 009°25'0 0.0
2017-Oct-18 17:26N 58°52' E 009°25'0 0.0
2017-Oct-18 16:56N 58°52' E 009°25'0 0.0
2017-Oct-18 16:26N 58°52' E 009°25'0 0.0
2017-Oct-18 15:56N 58°52' E 009°25'0 0.3
2017-Oct-18 15:30N 58°52' E 009°25'4 7.5
2017-Oct-18 14:59N 58°49' E 009°30'8 8.3
2017-Oct-18 14:00N 58°50' E 009°46'2 4.1
2017-Oct-18 13:30N 58°51' E 009°50'0 0.5
2017-Oct-18 12:59N 58°51' E 009°50'9 1.2
2017-Oct-18 05:03N 58°48' E 009°33'0 7.2
2017-Oct-18 04:59N 58°48' E 009°33'4 7.7
2017-Oct-18 04:30N 58°51' E 009°27'2 3.4
2017-Oct-18 03:56N 58°52' E 009°25'0 0.0
2017-Oct-18 03:29N 58°52' E 009°25'0 0.0
2017-Oct-18 02:59N 58°52' E 009°25'0 0.0
2017-Oct-18 02:29N 58°52' E 009°25'0 0.0
2017-Oct-18 01:56N 58°52' E 009°25'0 0.0
2017-Oct-18 01:29N 58°52' E 009°25'0 0.0
2017-Oct-18 00:59N 58°52' E 009°25'0 0.0
2017-Oct-18 00:26N 58°52' E 009°25'0 0.0
2017-Oct-17 23:56N 58°52' E 009°25'0 0.0
2017-Oct-17 23:29N 58°52' E 009°25'0 0.0
2017-Oct-17 22:56N 58°52' E 009°25'0 0.0
2017-Oct-17 22:26N 58°52' E 009°25'0 0.0
2017-Oct-17 21:56N 58°52' E 009°25'0 0.0
2017-Oct-17 21:26N 58°52' E 009°25'0 0.0
2017-Oct-17 20:38N 58°52' E 009°25'0 0.0
2017-Oct-17 20:26N 58°52' E 009°25'0 0.0
2017-Oct-17 19:56N 58°52' E 009°25'0 0.0
2017-Oct-17 19:26N 58°52' E 009°25'0 0.0
2017-Oct-17 18:56N 58°52' E 009°25'0 0.0
2017-Oct-17 18:26N 58°52' E 009°25'0 0.0
2017-Oct-17 17:50N 58°52' E 009°25'0 0.0
2017-Oct-17 17:26N 58°52' E 009°25'0 0.0
2017-Oct-17 16:56N 58°52' E 009°25'0 0.0
2017-Oct-17 16:26N 58°52' E 009°25'0 0.0
2017-Oct-17 15:56N 58°52' E 009°25'0 0.0
2017-Oct-17 15:26N 58°52' E 009°25'0 0.0
2017-Oct-17 14:44N 58°52' E 009°25'0 0.0
2017-Oct-17 14:26N 58°52' E 009°25'0 0.0
2017-Oct-17 13:56N 58°52' E 009°25'0 0.0
2017-Oct-17 13:20N 58°52' E 009°25'0 0.0
2017-Oct-17 12:56N 58°52' E 009°25'0 0.0
2017-Oct-17 12:26N 58°52' E 009°25'0 0.0
2017-Oct-17 11:56N 58°52' E 009°25'0 0.0
2017-Oct-17 11:26N 58°52' E 009°25'0 0.0
2017-Oct-17 10:56N 58°52' E 009°25'0 0.0
2017-Oct-17 10:20N 58°52' E 009°25'0 0.0
2017-Oct-17 09:56N 58°52' E 009°25'0 0.0
2017-Oct-17 09:26N 58°52' E 009°25'0 0.0
2017-Oct-17 08:56N 58°52' E 009°25'0 0.0
2017-Oct-17 08:26N 58°52' E 009°25'0 0.0
2017-Oct-17 07:56N 58°52' E 009°25'0 0.0
2017-Oct-17 07:23N 58°52' E 009°25'0 0.0
2017-Oct-17 06:56N 58°52' E 009°25'0 0.0
2017-Oct-17 06:26N 58°52' E 009°25'0 0.0
2017-Oct-17 05:50N 58°52' E 009°25'0 0.0
2017-Oct-17 05:26N 58°52' E 009°25'0 0.0
2017-Oct-17 04:44N 58°52' E 009°25'0 0.0
2017-Oct-17 04:26N 58°52' E 009°25'0 0.0
2017-Oct-17 03:56N 58°52' E 009°25'0 0.0
2017-Oct-17 03:26N 58°52' E 009°25'0 0.0
2017-Oct-17 02:56N 58°52' E 009°25'0 0.0
2017-Oct-17 02:26N 58°52' E 009°25'0 0.0
2017-Oct-17 01:50N 58°52' E 009°25'0 0.0
2017-Oct-17 01:26N 58°52' E 009°25'0 0.0
2017-Oct-17 00:59N 58°52' E 009°25'0 0.0
2017-Oct-17 00:26N 58°52' E 009°25'0 0.0
2017-Oct-16 23:59N 58°52' E 009°25'0 0.0
2017-Oct-16 23:26N 58°52' E 009°25'0 0.0
2017-Oct-16 22:56N 58°52' E 009°25'0 0.0
2017-Oct-16 22:26N 58°52' E 009°25'0 0.0
2017-Oct-16 21:56N 58°52' E 009°25'0 0.0
2017-Oct-16 21:26N 58°52' E 009°25'0 0.0
2017-Oct-16 20:56N 58°52' E 009°25'0 0.0
2017-Oct-16 20:26N 58°52' E 009°25'0 0.0
2017-Oct-16 19:53N 58°52' E 009°25'0 0.0
2017-Oct-16 19:26N 58°52' E 009°25'0 0.0
2017-Oct-16 18:50N 58°52' E 009°25'0 0.0
2017-Oct-16 18:14N 58°52' E 009°25'0 0.0
2017-Oct-16 17:53N 58°52' E 009°25'0 0.0
2017-Oct-16 17:26N 58°52' E 009°25'0 0.0
2017-Oct-16 16:56N 58°52' E 009°25'0 0.0
2017-Oct-16 16:26N 58°52' E 009°25'0 0.0
2017-Oct-16 15:56N 58°52' E 009°25'0 0.0
2017-Oct-16 15:26N 58°52' E 009°25'0 0.0
2017-Oct-16 14:56N 58°52' E 009°25'0 0.0
2017-Oct-16 14:29N 58°52' E 009°25'3 3.4
2017-Oct-16 13:30N 58°49' E 009°29'4 7.2
2017-Oct-16 13:00N 58°46' E 009°32'7 1.0
2017-Oct-16 06:38N 58°52' E 009°25'0 1.5
2017-Oct-16 06:23N 58°52' E 009°25'0 0.0
2017-Oct-16 05:53N 58°52' E 009°25'0 0.0
2017-Oct-16 05:29N 58°52' E 009°25'0 0.0
2017-Oct-16 04:41N 58°52' E 009°25'0 0.0
2017-Oct-16 04:29N 58°52' E 009°25'0 0.0
2017-Oct-16 03:53N 58°52' E 009°25'0 0.0
2017-Oct-16 03:23N 58°52' E 009°25'0 0.0
2017-Oct-16 02:59N 58°52' E 009°25'0 0.0
2017-Oct-16 02:23N 58°52' E 009°25'0 0.0
2017-Oct-16 01:59N 58°52' E 009°25'0 0.0
2017-Oct-16 01:29N 58°52' E 009°25'0 0.0
2017-Oct-16 00:59N 58°52' E 009°25'0 0.0
2017-Oct-16 00:29N 58°52' E 009°25'0 0.0
2017-Oct-15 23:53N 58°52' E 009°25'0 0.0
2017-Oct-15 23:29N 58°52' E 009°25'0 0.0
2017-Oct-15 22:59N 58°52' E 009°25'0 0.0
2017-Oct-15 22:29N 58°52' E 009°25'0 0.0
2017-Oct-15 21:59N 58°52' E 009°25'0 0.0
2017-Oct-15 21:17N 58°52' E 009°25'0 0.0
2017-Oct-15 20:59N 58°52' E 009°25'0 0.0
2017-Oct-15 20:29N 58°52' E 009°25'0 0.0
2017-Oct-15 19:59N 58°52' E 009°25'0 0.0
2017-Oct-15 19:29N 58°52' E 009°25'0 0.0
2017-Oct-15 18:59N 58°52' E 009°25'0 0.0
2017-Oct-15 18:23N 58°52' E 009°25'0 0.0
2017-Oct-15 17:59N 58°52' E 009°25'0 0.0
2017-Oct-15 17:23N 58°52' E 009°25'0 0.0
2017-Oct-15 16:59N 58°52' E 009°25'0 0.0
2017-Oct-15 16:29N 58°52' E 009°25'0 0.0
2017-Oct-15 15:53N 58°52' E 009°25'0 0.0
2017-Oct-15 15:17N 58°52' E 009°25'0 0.0
2017-Oct-15 14:59N 58°52' E 009°25'0 0.0
2017-Oct-15 13:59N 58°52' E 009°25'0 0.0
2017-Oct-15 13:29N 58°52' E 009°25'0 0.0
2017-Oct-15 12:59N 58°52' E 009°25'0 0.0
2017-Oct-15 12:29N 58°52' E 009°25'0 0.0
2017-Oct-15 11:53N 58°52' E 009°25'0 0.0
2017-Oct-15 11:23N 58°52' E 009°25'0 0.0
2017-Oct-15 10:59N 58°52' E 009°25'0 0.0
2017-Oct-15 10:29N 58°52' E 009°25'0 0.0
2017-Oct-15 09:59N 58°52' E 009°25'0 0.0
2017-Oct-15 09:29N 58°52' E 009°25'0 0.0
2017-Oct-15 08:47N 58°52' E 009°25'0 0.0
2017-Oct-15 08:29N 58°52' E 009°25'0 0.0
2017-Oct-15 07:59N 58°52' E 009°25'0 0.0
2017-Oct-15 07:29N 58°52' E 009°25'0 0.0
2017-Oct-15 06:59N 58°52' E 009°25'0 0.0
2017-Oct-15 06:17N 58°52' E 009°25'0 0.0
2017-Oct-15 05:53N 58°52' E 009°25'0 0.0
2017-Oct-15 05:17N 58°52' E 009°25'0 0.0
2017-Oct-15 04:59N 58°52' E 009°25'0 0.0
2017-Oct-15 04:23N 58°52' E 009°25'0 0.0
2017-Oct-15 03:47N 58°52' E 009°25'0 0.0
2017-Oct-15 03:17N 58°52' E 009°25'0 0.0
2017-Oct-15 02:59N 58°52' E 009°25'0 0.0
2017-Oct-15 02:29N 58°52' E 009°25'0 0.0
2017-Oct-15 01:59N 58°52' E 009°25'0 0.0
2017-Oct-15 01:29N 58°52' E 009°25'0 0.0
2017-Oct-15 00:53N 58°52' E 009°25'0 0.0
2017-Oct-15 00:23N 58°52' E 009°25'0 0.0
2017-Oct-14 23:59N 58°52' E 009°25'0 0.0
2017-Oct-14 23:29N 58°52' E 009°25'0 0.0
2017-Oct-14 22:53N 58°52' E 009°25'0 0.0
2017-Oct-14 22:29N 58°52' E 009°25'0 0.0
2017-Oct-14 21:53N 58°52' E 009°25'0 0.0
2017-Oct-14 21:23N 58°52' E 009°25'0 0.0
2017-Oct-14 20:53N 58°52' E 009°25'0 0.0
2017-Oct-14 20:29N 58°52' E 009°25'0 0.0
2017-Oct-14 19:53N 58°52' E 009°25'0 0.0
2017-Oct-14 18:53N 58°52' E 009°25'0 0.0
2017-Oct-14 18:23N 58°52' E 009°25'0 0.0
2017-Oct-14 17:59N 58°52' E 009°25'0 0.0
2017-Oct-14 17:29N 58°52' E 009°25'0 0.0
2017-Oct-14 16:47N 58°52' E 009°25'0 0.0
2017-Oct-14 16:23N 58°52' E 009°25'0 0.0
2017-Oct-14 15:59N 58°52' E 009°25'0 0.0
2017-Oct-14 15:23N 58°52' E 009°25'0 0.0
2017-Oct-14 14:59N 58°52' E 009°25'0 0.0
2017-Oct-14 14:29N 58°52' E 009°25'0 0.0
2017-Oct-14 13:59N 58°52' E 009°25'0 0.0
2017-Oct-14 13:29N 58°52' E 009°25'0 0.0
2017-Oct-14 12:41N 58°52' E 009°25'0 0.0
2017-Oct-14 12:23N 58°52' E 009°25'0 0.0
2017-Oct-14 11:59N 58°52' E 009°25'0 0.0
2017-Oct-14 11:11N 58°52' E 009°25'0 0.0
2017-Oct-14 10:59N 58°52' E 009°25'0 0.0
2017-Oct-14 10:29N 58°52' E 009°25'0 0.0
2017-Oct-14 09:59N 58°52' E 009°25'0 0.0
2017-Oct-14 09:29N 58°52' E 009°25'0 0.0
2017-Oct-14 08:59N 58°52' E 009°25'0 0.0
2017-Oct-14 08:29N 58°52' E 009°25'0 0.0
2017-Oct-14 07:59N 58°52' E 009°25'0 0.0
2017-Oct-14 07:29N 58°52' E 009°25'0 0.0
2017-Oct-14 06:53N 58°52' E 009°25'0 0.0
2017-Oct-14 06:29N 58°52' E 009°25'0 0.0
2017-Oct-14 05:53N 58°52' E 009°25'0 0.0
2017-Oct-14 05:29N 58°52' E 009°25'0 0.0
2017-Oct-14 04:59N 58°52' E 009°25'0 0.0
2017-Oct-14 04:29N 58°52' E 009°25'0 0.0
2017-Oct-14 03:56N 58°52' E 009°25'0 0.0
2017-Oct-14 03:23N 58°52' E 009°25'0 0.0
2017-Oct-14 02:59N 58°52' E 009°25'0 0.0
2017-Oct-14 02:29N 58°52' E 009°25'0 0.0
2017-Oct-14 01:59N 58°52' E 009°25'0 0.0
2017-Oct-14 01:23N 58°52' E 009°25'0 0.0
2017-Oct-14 00:59N 58°52' E 009°25'0 0.0
2017-Oct-14 00:29N 58°52' E 009°25'0 0.0
2017-Oct-13 23:59N 58°52' E 009°25'0 0.0
2017-Oct-13 23:29N 58°52' E 009°25'0 0.0
2017-Oct-13 22:53N 58°52' E 009°25'0 0.0
2017-Oct-13 22:17N 58°52' E 009°25'0 0.0
2017-Oct-13 21:59N 58°52' E 009°25'0 0.0
2017-Oct-13 21:23N 58°52' E 009°25'0 0.0
2017-Oct-13 20:59N 58°52' E 009°25'0 0.0
2017-Oct-13 20:29N 58°52' E 009°25'0 0.0
2017-Oct-13 19:59N 58°52' E 009°25'0 0.0
2017-Oct-13 19:29N 58°52' E 009°25'0 0.0
2017-Oct-13 18:59N 58°52' E 009°25'0 0.0
2017-Oct-13 18:29N 58°52' E 009°25'0 0.0
2017-Oct-13 17:59N 58°52' E 009°25'0 0.0
2017-Oct-13 17:29N 58°52' E 009°25'0 0.0
2017-Oct-13 16:59N 58°52' E 009°25'0 0.0
2017-Oct-13 16:23N 58°52' E 009°25'0 0.0
2017-Oct-13 15:59N 58°52' E 009°25'0 0.0
2017-Oct-13 15:29N 58°52' E 009°25'0 0.0
2017-Oct-13 14:53N 58°52' E 009°25'0 0.0
2017-Oct-13 14:29N 58°52' E 009°25'0 0.0
2017-Oct-13 13:59N 58°52' E 009°25'0 0.0
2017-Oct-13 13:29N 58°52' E 009°25'0 0.0
2017-Oct-13 12:47N 58°52' E 009°25'0 0.0
2017-Oct-13 12:23N 58°52' E 009°25'0 0.0
2017-Oct-13 11:53N 58°52' E 009°25'0 0.0
2017-Oct-13 11:29N 58°52' E 009°25'0 0.0
2017-Oct-13 10:59N 58°52' E 009°25'0 0.0
2017-Oct-13 10:29N 58°52' E 009°25'0 0.0
2017-Oct-13 09:59N 58°52' E 009°25'0 0.0
2017-Oct-13 09:29N 58°52' E 009°25'0 0.0
2017-Oct-13 08:59N 58°52' E 009°25'0 0.0
2017-Oct-13 08:29N 58°52' E 009°25'0 0.0
2017-Oct-12 16:24N 58°52' E 009°25'0 0.0
2017-Oct-12 15:59N 58°52' E 009°25'0 0.0
2017-Oct-12 15:17N 58°52' E 009°25'0 0.0
2017-Oct-12 14:53N 58°52' E 009°25'0 0.0
2017-Oct-12 14:23N 58°52' E 009°25'0 0.0
2017-Oct-12 13:59N 58°52' E 009°25'0 0.0
2017-Oct-12 13:29N 58°52' E 009°25'0 0.0
2017-Oct-12 12:59N 58°52' E 009°25'0 0.0
2017-Oct-12 12:29N 58°52' E 009°25'0 0.0
2017-Oct-12 11:53N 58°52' E 009°25'0 0.0
2017-Oct-12 11:29N 58°52' E 009°25'0 0.0
2017-Oct-12 10:59N 58°52' E 009°25'0 0.0
2017-Oct-12 10:17N 58°52' E 009°25'0 0.0
2017-Oct-12 09:59N 58°52' E 009°25'0 0.0
2017-Oct-12 09:29N 58°52' E 009°25'0 0.0
2017-Oct-12 08:59N 58°52' E 009°25'0 0.0
2017-Oct-12 08:29N 58°52' E 009°25'0 0.0
2017-Oct-12 07:59N 58°52' E 009°25'0 0.0
2017-Oct-12 07:29N 58°52' E 009°25'0 0.0
2017-Oct-12 06:59N 58°52' E 009°25'0 0.0
2017-Oct-12 06:29N 58°52' E 009°25'0 0.0
2017-Oct-12 05:53N 58°52' E 009°25'0 0.0
2017-Oct-12 05:29N 58°52' E 009°25'0 0.0
2017-Oct-12 04:59N 58°52' E 009°25'0 0.0
2017-Oct-12 04:29N 58°52' E 009°25'0 0.0
2017-Oct-12 03:59N 58°52' E 009°25'0 0.0
2017-Oct-12 03:29N 58°52' E 009°25'0 0.0
2017-Oct-12 02:59N 58°52' E 009°25'0 0.0
2017-Oct-12 02:29N 58°52' E 009°25'0 0.0
2017-Oct-12 01:59N 58°52' E 009°25'0 0.0
2017-Oct-12 01:29N 58°52' E 009°25'0 0.0
2017-Oct-12 00:53N 58°52' E 009°25'0 0.0
2017-Oct-12 00:29N 58°52' E 009°25'0 0.0
2017-Oct-11 23:59N 58°52' E 009°25'0 0.0
2017-Oct-11 23:29N 58°52' E 009°25'0 0.0
2017-Oct-11 22:59N 58°52' E 009°25'0 0.0
2017-Oct-11 22:23N 58°52' E 009°25'0 0.0
2017-Oct-11 21:47N 58°52' E 009°25'0 0.0
2017-Oct-11 21:29N 58°52' E 009°25'0 0.0
2017-Oct-11 20:59N 58°52' E 009°25'0 0.0
2017-Oct-11 20:29N 58°52' E 009°25'0 0.0
2017-Oct-11 19:53N 58°52' E 009°25'0 0.0
2017-Oct-11 19:29N 58°52' E 009°25'0 0.0
2017-Oct-11 18:59N 58°52' E 009°25'0 0.0
2017-Oct-11 18:29N 58°52' E 009°25'0 0.0
2017-Oct-11 17:59N 58°52' E 009°25'0 0.0
2017-Oct-11 17:23N 58°52' E 009°25'0 0.0
2017-Oct-11 16:59N 58°52' E 009°25'0 0.0
2017-Oct-10 23:52N 58°52' E 009°25'0 0.0
2017-Oct-10 23:28N 58°52' E 009°25'0 0.0
2017-Oct-10 22:58N 58°52' E 009°25'0 0.0
2017-Oct-10 22:28N 58°52' E 009°25'0 0.0
2017-Oct-10 21:52N 58°52' E 009°25'0 0.0
2017-Oct-10 21:28N 58°52' E 009°25'0 0.0
2017-Oct-10 20:46N 58°52' E 009°25'0 0.0
2017-Oct-10 20:28N 58°52' E 009°25'0 0.0
2017-Oct-10 19:58N 58°52' E 009°25'0 0.0
2017-Oct-10 19:28N 58°52' E 009°25'0 0.0
2017-Oct-10 18:58N 58°52' E 009°25'0 0.0
2017-Oct-10 18:28N 58°52' E 009°25'0 0.0
2017-Oct-10 17:58N 58°52' E 009°25'0 0.0
2017-Oct-10 17:28N 58°52' E 009°25'0 0.0
2017-Oct-10 16:52N 58°52' E 009°25'0 0.0
2017-Oct-10 16:28N 58°52' E 009°25'0 0.0
2017-Oct-10 15:58N 58°52' E 009°25'0 0.0
2017-Oct-10 15:28N 58°52' E 009°25'0 0.0
2017-Oct-10 14:58N 58°52' E 009°25'0 0.0
2017-Oct-10 13:59N 58°52' E 009°25'3 6.9
2017-Oct-10 13:30N 58°50' E 009°29'4 7.0
2017-Oct-10 13:00N 58°48' E 009°35'4 7.2
2017-Oct-10 12:29N 58°47' E 009°42'3 6.1
2017-Oct-10 11:59N 58°46' E 009°48'1 1.1
2017-Oct-10 11:29N 58°46' E 009°49'  

Dump ship's entire track history